sensor_id;sensor_type;location;lat;lon;timestamp;P1;durP1;ratioP1;P2;durP2;ratioP2
5277;SDS011;2662;51.194;6.614;2022-12-18T00:02:05;16.02;;;6.50;;
5277;SDS011;2662;51.194;6.614;2022-12-18T00:04:31;14.30;;;6.03;;
5277;SDS011;2662;51.194;6.614;2022-12-18T00:06:59;12.50;;;6.10;;
5277;SDS011;2662;51.194;6.614;2022-12-18T00:09:26;15.73;;;6.07;;
5277;SDS011;2662;51.194;6.614;2022-12-18T00:11:53;9.80;;;5.45;;
5277;SDS011;2662;51.194;6.614;2022-12-18T00:14:20;11.57;;;5.70;;
5277;SDS011;2662;51.194;6.614;2022-12-18T00:16:46;10.50;;;5.28;;
5277;SDS011;2662;51.194;6.614;2022-12-18T00:19:13;10.18;;;5.22;;
5277;SDS011;2662;51.194;6.614;2022-12-18T00:21:41;13.60;;;5.60;;
5277;SDS011;2662;51.194;6.614;2022-12-18T00:24:09;10.20;;;5.97;;
5277;SDS011;2662;51.194;6.614;2022-12-18T00:26:37;14.57;;;6.13;;
5277;SDS011;2662;51.194;6.614;2022-12-18T00:29:06;15.43;;;5.82;;
5277;SDS011;2662;51.194;6.614;2022-12-18T00:31:36;11.05;;;5.65;;
5277;SDS011;2662;51.194;6.614;2022-12-18T00:34:04;13.63;;;5.57;;
5277;SDS011;2662;51.194;6.614;2022-12-18T00:36:31;9.68;;;5.40;;
5277;SDS011;2662;51.194;6.614;2022-12-18T00:39:00;13.13;;;5.63;;
5277;SDS011;2662;51.194;6.614;2022-12-18T00:41:29;13.00;;;5.78;;
5277;SDS011;2662;51.194;6.614;2022-12-18T00:44:15;14.02;;;6.25;;
5277;SDS011;2662;51.194;6.614;2022-12-18T00:46:43;14.00;;;6.32;;
5277;SDS011;2662;51.194;6.614;2022-12-18T00:49:10;12.38;;;5.63;;
5277;SDS011;2662;51.194;6.614;2022-12-18T00:51:39;11.40;;;4.75;;
5277;SDS011;2662;51.194;6.614;2022-12-18T00:54:06;11.40;;;5.30;;
5277;SDS011;2662;51.194;6.614;2022-12-18T00:56:34;10.00;;;5.60;;
5277;SDS011;2662;51.194;6.614;2022-12-18T00:59:02;8.95;;;5.50;;
5277;SDS011;2662;51.194;6.614;2022-12-18T01:01:28;13.30;;;4.90;;
5277;SDS011;2662;51.194;6.614;2022-12-18T01:03:55;10.88;;;5.63;;
5277;SDS011;2662;51.194;6.614;2022-12-18T01:06:22;13.43;;;6.07;;
5277;SDS011;2662;51.194;6.614;2022-12-18T01:08:49;18.55;;;6.40;;
5277;SDS011;2662;51.194;6.614;2022-12-18T01:11:17;13.05;;;6.50;;
5277;SDS011;2662;51.194;6.614;2022-12-18T01:13:46;10.63;;;5.65;;
5277;SDS011;2662;51.194;6.614;2022-12-18T01:16:13;12.75;;;5.35;;
5277;SDS011;2662;51.194;6.614;2022-12-18T01:18:41;12.95;;;6.50;;
5277;SDS011;2662;51.194;6.614;2022-12-18T01:21:08;13.88;;;6.20;;
5277;SDS011;2662;51.194;6.614;2022-12-18T01:23:37;15.85;;;6.22;;
5277;SDS011;2662;51.194;6.614;2022-12-18T01:26:04;12.98;;;5.97;;
5277;SDS011;2662;51.194;6.614;2022-12-18T01:28:32;13.52;;;6.60;;
5277;SDS011;2662;51.194;6.614;2022-12-18T01:31:10;12.02;;;6.20;;
5277;SDS011;2662;51.194;6.614;2022-12-18T01:33:42;11.27;;;6.03;;
5277;SDS011;2662;51.194;6.614;2022-12-18T01:36:14;10.43;;;5.65;;
5277;SDS011;2662;51.194;6.614;2022-12-18T01:38:42;11.35;;;5.57;;
5277;SDS011;2662;51.194;6.614;2022-12-18T01:41:09;12.02;;;6.10;;
5277;SDS011;2662;51.194;6.614;2022-12-18T01:43:43;9.75;;;5.75;;
5277;SDS011;2662;51.194;6.614;2022-12-18T01:46:12;11.82;;;5.75;;
5277;SDS011;2662;51.194;6.614;2022-12-18T01:48:39;12.32;;;6.50;;
5277;SDS011;2662;51.194;6.614;2022-12-18T01:51:07;12.23;;;5.53;;
5277;SDS011;2662;51.194;6.614;2022-12-18T01:53:36;8.55;;;5.80;;
5277;SDS011;2662;51.194;6.614;2022-12-18T01:56:05;10.18;;;5.35;;
5277;SDS011;2662;51.194;6.614;2022-12-18T01:58:32;14.10;;;6.40;;
5277;SDS011;2662;51.194;6.614;2022-12-18T02:01:05;12.85;;;5.55;;
5277;SDS011;2662;51.194;6.614;2022-12-18T02:03:34;11.65;;;6.05;;
5277;SDS011;2662;51.194;6.614;2022-12-18T02:06:01;13.10;;;6.75;;
5277;SDS011;2662;51.194;6.614;2022-12-18T02:08:35;10.25;;;5.30;;
5277;SDS011;2662;51.194;6.614;2022-12-18T02:11:06;13.93;;;6.57;;
5277;SDS011;2662;51.194;6.614;2022-12-18T02:13:38;10.20;;;5.80;;
5277;SDS011;2662;51.194;6.614;2022-12-18T02:16:13;15.50;;;6.18;;
5277;SDS011;2662;51.194;6.614;2022-12-18T02:18:50;17.75;;;6.95;;
5277;SDS011;2662;51.194;6.614;2022-12-18T02:21:25;12.73;;;6.40;;
5277;SDS011;2662;51.194;6.614;2022-12-18T02:24:02;12.02;;;5.22;;
5277;SDS011;2662;51.194;6.614;2022-12-18T02:26:43;11.70;;;5.78;;
5277;SDS011;2662;51.194;6.614;2022-12-18T02:29:14;13.07;;;6.07;;
5277;SDS011;2662;51.194;6.614;2022-12-18T02:31:47;14.32;;;6.22;;
5277;SDS011;2662;51.194;6.614;2022-12-18T02:34:19;12.15;;;6.13;;
5277;SDS011;2662;51.194;6.614;2022-12-18T02:36:49;11.55;;;6.25;;
5277;SDS011;2662;51.194;6.614;2022-12-18T02:39:19;13.93;;;6.10;;
5277;SDS011;2662;51.194;6.614;2022-12-18T02:41:49;11.45;;;6.35;;
5277;SDS011;2662;51.194;6.614;2022-12-18T02:44:17;16.85;;;6.45;;
5277;SDS011;2662;51.194;6.614;2022-12-18T02:46:44;14.82;;;6.57;;
5277;SDS011;2662;51.194;6.614;2022-12-18T02:49:19;11.40;;;6.28;;
5277;SDS011;2662;51.194;6.614;2022-12-18T02:51:52;11.35;;;5.72;;
5277;SDS011;2662;51.194;6.614;2022-12-18T02:54:24;11.32;;;6.13;;
5277;SDS011;2662;51.194;6.614;2022-12-18T02:57:07;13.85;;;6.90;;
5277;SDS011;2662;51.194;6.614;2022-12-18T02:59:44;13.15;;;5.82;;
5277;SDS011;2662;51.194;6.614;2022-12-18T03:02:17;13.35;;;5.72;;
5277;SDS011;2662;51.194;6.614;2022-12-18T03:04:49;12.65;;;6.32;;
5277;SDS011;2662;51.194;6.614;2022-12-18T03:07:23;13.55;;;6.15;;
5277;SDS011;2662;51.194;6.614;2022-12-18T03:09:59;13.07;;;5.93;;
5277;SDS011;2662;51.194;6.614;2022-12-18T03:12:29;11.80;;;6.25;;
5277;SDS011;2662;51.194;6.614;2022-12-18T03:14:59;10.43;;;5.65;;
5277;SDS011;2662;51.194;6.614;2022-12-18T03:17:30;14.55;;;6.78;;
5277;SDS011;2662;51.194;6.614;2022-12-18T03:19:59;12.35;;;6.13;;
5277;SDS011;2662;51.194;6.614;2022-12-18T03:22:30;14.65;;;5.80;;
5277;SDS011;2662;51.194;6.614;2022-12-18T03:24:59;12.00;;;5.78;;
5277;SDS011;2662;51.194;6.614;2022-12-18T03:27:31;16.23;;;5.97;;
5277;SDS011;2662;51.194;6.614;2022-12-18T03:30:00;8.40;;;5.22;;
5277;SDS011;2662;51.194;6.614;2022-12-18T03:32:33;8.82;;;5.43;;
5277;SDS011;2662;51.194;6.614;2022-12-18T03:35:05;12.05;;;5.95;;
5277;SDS011;2662;51.194;6.614;2022-12-18T03:37:34;11.90;;;6.32;;
5277;SDS011;2662;51.194;6.614;2022-12-18T03:40:01;16.15;;;5.60;;
5277;SDS011;2662;51.194;6.614;2022-12-18T03:42:28;11.05;;;5.70;;
5277;SDS011;2662;51.194;6.614;2022-12-18T03:45:06;14.65;;;6.28;;
5277;SDS011;2662;51.194;6.614;2022-12-18T03:47:36;11.82;;;6.07;;
5277;SDS011;2662;51.194;6.614;2022-12-18T03:50:08;12.35;;;4.70;;
5277;SDS011;2662;51.194;6.614;2022-12-18T03:52:40;11.77;;;5.38;;
5277;SDS011;2662;51.194;6.614;2022-12-18T03:55:11;9.40;;;5.35;;
5277;SDS011;2662;51.194;6.614;2022-12-18T03:57:40;9.77;;;4.85;;
5277;SDS011;2662;51.194;6.614;2022-12-18T04:00:11;9.70;;;5.10;;
5277;SDS011;2662;51.194;6.614;2022-12-18T04:02:40;10.00;;;5.25;;
5277;SDS011;2662;51.194;6.614;2022-12-18T04:05:11;11.90;;;5.82;;
5277;SDS011;2662;51.194;6.614;2022-12-18T04:07:39;9.35;;;5.28;;
5277;SDS011;2662;51.194;6.614;2022-12-18T04:10:07;7.30;;;5.00;;
5277;SDS011;2662;51.194;6.614;2022-12-18T04:12:36;12.00;;;5.30;;
5277;SDS011;2662;51.194;6.614;2022-12-18T04:15:05;8.95;;;5.13;;
5277;SDS011;2662;51.194;6.614;2022-12-18T04:17:33;9.63;;;5.13;;
5277;SDS011;2662;51.194;6.614;2022-12-18T04:20:00;8.07;;;5.28;;
5277;SDS011;2662;51.194;6.614;2022-12-18T04:22:27;11.35;;;5.68;;
5277;SDS011;2662;51.194;6.614;2022-12-18T04:24:54;10.05;;;5.45;;
5277;SDS011;2662;51.194;6.614;2022-12-18T04:27:20;12.63;;;5.28;;
5277;SDS011;2662;51.194;6.614;2022-12-18T04:29:47;14.00;;;5.85;;
5277;SDS011;2662;51.194;6.614;2022-12-18T04:32:15;11.88;;;5.88;;
5277;SDS011;2662;51.194;6.614;2022-12-18T04:34:42;6.60;;;4.38;;
5277;SDS011;2662;51.194;6.614;2022-12-18T04:37:09;13.15;;;5.03;;
5277;SDS011;2662;51.194;6.614;2022-12-18T04:39:36;12.07;;;4.90;;
5277;SDS011;2662;51.194;6.614;2022-12-18T04:42:03;8.68;;;4.80;;
5277;SDS011;2662;51.194;6.614;2022-12-18T04:44:29;11.02;;;5.40;;
5277;SDS011;2662;51.194;6.614;2022-12-18T04:46:56;13.13;;;6.07;;
5277;SDS011;2662;51.194;6.614;2022-12-18T04:49:24;16.33;;;6.25;;
5277;SDS011;2662;51.194;6.614;2022-12-18T04:51:51;9.80;;;4.75;;
5277;SDS011;2662;51.194;6.614;2022-12-18T04:54:18;10.65;;;5.50;;
5277;SDS011;2662;51.194;6.614;2022-12-18T04:56:46;10.68;;;5.68;;
5277;SDS011;2662;51.194;6.614;2022-12-18T04:59:13;9.05;;;5.10;;
5277;SDS011;2662;51.194;6.614;2022-12-18T05:01:39;11.77;;;4.95;;
5277;SDS011;2662;51.194;6.614;2022-12-18T05:04:06;11.65;;;5.72;;
5277;SDS011;2662;51.194;6.614;2022-12-18T05:06:34;9.38;;;5.00;;
5277;SDS011;2662;51.194;6.614;2022-12-18T05:09:01;12.23;;;5.55;;
5277;SDS011;2662;51.194;6.614;2022-12-18T05:11:27;8.45;;;5.15;;
5277;SDS011;2662;51.194;6.614;2022-12-18T05:13:54;10.45;;;5.85;;
5277;SDS011;2662;51.194;6.614;2022-12-18T05:16:21;12.43;;;5.40;;
5277;SDS011;2662;51.194;6.614;2022-12-18T05:18:48;11.85;;;5.13;;
5277;SDS011;2662;51.194;6.614;2022-12-18T05:21:14;8.25;;;5.25;;
5277;SDS011;2662;51.194;6.614;2022-12-18T05:23:42;7.45;;;5.43;;
5277;SDS011;2662;51.194;6.614;2022-12-18T05:26:09;11.35;;;5.63;;
5277;SDS011;2662;51.194;6.614;2022-12-18T05:28:41;15.88;;;6.05;;
5277;SDS011;2662;51.194;6.614;2022-12-18T05:31:08;8.85;;;4.82;;
5277;SDS011;2662;51.194;6.614;2022-12-18T05:33:36;8.27;;;5.30;;
5277;SDS011;2662;51.194;6.614;2022-12-18T05:36:03;14.65;;;5.78;;
5277;SDS011;2662;51.194;6.614;2022-12-18T05:38:32;10.48;;;5.55;;
5277;SDS011;2662;51.194;6.614;2022-12-18T05:41:02;12.57;;;4.90;;
5277;SDS011;2662;51.194;6.614;2022-12-18T05:43:29;11.48;;;5.93;;
5277;SDS011;2662;51.194;6.614;2022-12-18T05:45:56;12.70;;;5.45;;
5277;SDS011;2662;51.194;6.614;2022-12-18T05:48:23;7.53;;;5.13;;
5277;SDS011;2662;51.194;6.614;2022-12-18T05:50:50;9.52;;;5.32;;
5277;SDS011;2662;51.194;6.614;2022-12-18T05:53:17;9.32;;;5.40;;
5277;SDS011;2662;51.194;6.614;2022-12-18T05:55:46;11.88;;;5.55;;
5277;SDS011;2662;51.194;6.614;2022-12-18T05:58:15;10.10;;;5.00;;
5277;SDS011;2662;51.194;6.614;2022-12-18T06:00:43;14.13;;;5.40;;
5277;SDS011;2662;51.194;6.614;2022-12-18T06:03:12;8.00;;;5.13;;
5277;SDS011;2662;51.194;6.614;2022-12-18T06:05:40;10.45;;;5.75;;
5277;SDS011;2662;51.194;6.614;2022-12-18T06:08:08;9.43;;;5.55;;
5277;SDS011;2662;51.194;6.614;2022-12-18T06:10:35;10.77;;;5.20;;
5277;SDS011;2662;51.194;6.614;2022-12-18T06:13:03;12.77;;;6.18;;
5277;SDS011;2662;51.194;6.614;2022-12-18T06:15:35;13.82;;;6.00;;
5277;SDS011;2662;51.194;6.614;2022-12-18T06:18:02;9.85;;;4.93;;
5277;SDS011;2662;51.194;6.614;2022-12-18T06:20:29;11.20;;;5.95;;
5277;SDS011;2662;51.194;6.614;2022-12-18T06:22:56;13.55;;;5.60;;
5277;SDS011;2662;51.194;6.614;2022-12-18T06:25:22;12.00;;;6.47;;
5277;SDS011;2662;51.194;6.614;2022-12-18T06:27:49;10.18;;;5.30;;
5277;SDS011;2662;51.194;6.614;2022-12-18T06:30:16;10.82;;;5.80;;
5277;SDS011;2662;51.194;6.614;2022-12-18T06:32:44;9.23;;;5.63;;
5277;SDS011;2662;51.194;6.614;2022-12-18T06:35:11;12.25;;;5.70;;
5277;SDS011;2662;51.194;6.614;2022-12-18T06:37:37;13.13;;;5.88;;
5277;SDS011;2662;51.194;6.614;2022-12-18T06:40:05;9.48;;;5.88;;
5277;SDS011;2662;51.194;6.614;2022-12-18T06:42:32;9.48;;;5.38;;
5277;SDS011;2662;51.194;6.614;2022-12-18T06:44:59;9.02;;;5.20;;
5277;SDS011;2662;51.194;6.614;2022-12-18T06:47:26;9.40;;;5.65;;
5277;SDS011;2662;51.194;6.614;2022-12-18T06:49:54;11.75;;;5.57;;
5277;SDS011;2662;51.194;6.614;2022-12-18T06:52:20;9.40;;;5.32;;
5277;SDS011;2662;51.194;6.614;2022-12-18T06:54:47;11.23;;;5.70;;
5277;SDS011;2662;51.194;6.614;2022-12-18T06:57:14;6.85;;;4.03;;
5277;SDS011;2662;51.194;6.614;2022-12-18T06:59:40;9.05;;;4.70;;
5277;SDS011;2662;51.194;6.614;2022-12-18T07:02:10;8.63;;;5.20;;
5277;SDS011;2662;51.194;6.614;2022-12-18T07:04:37;13.00;;;5.28;;
5277;SDS011;2662;51.194;6.614;2022-12-18T07:07:05;9.48;;;5.47;;
5277;SDS011;2662;51.194;6.614;2022-12-18T07:09:32;7.28;;;4.93;;
5277;SDS011;2662;51.194;6.614;2022-12-18T07:11:58;9.43;;;5.55;;
5277;SDS011;2662;51.194;6.614;2022-12-18T07:14:25;8.80;;;5.47;;
5277;SDS011;2662;51.194;6.614;2022-12-18T07:16:52;8.15;;;5.10;;
5277;SDS011;2662;51.194;6.614;2022-12-18T07:19:18;9.45;;;5.40;;
5277;SDS011;2662;51.194;6.614;2022-12-18T07:21:52;9.52;;;5.13;;
5277;SDS011;2662;51.194;6.614;2022-12-18T07:24:20;10.98;;;5.38;;
5277;SDS011;2662;51.194;6.614;2022-12-18T07:26:47;6.57;;;4.60;;
5277;SDS011;2662;51.194;6.614;2022-12-18T07:29:14;8.10;;;5.40;;
5277;SDS011;2662;51.194;6.614;2022-12-18T07:31:41;9.85;;;5.28;;
5277;SDS011;2662;51.194;6.614;2022-12-18T07:34:09;13.30;;;6.53;;
5277;SDS011;2662;51.194;6.614;2022-12-18T07:36:36;11.20;;;6.43;;
5277;SDS011;2662;51.194;6.614;2022-12-18T07:39:03;11.30;;;5.53;;
5277;SDS011;2662;51.194;6.614;2022-12-18T07:41:31;9.30;;;5.03;;
5277;SDS011;2662;51.194;6.614;2022-12-18T07:43:59;9.82;;;5.32;;
5277;SDS011;2662;51.194;6.614;2022-12-18T07:46:25;11.10;;;5.40;;
5277;SDS011;2662;51.194;6.614;2022-12-18T07:48:52;14.00;;;5.78;;
5277;SDS011;2662;51.194;6.614;2022-12-18T07:51:19;17.92;;;6.07;;
5277;SDS011;2662;51.194;6.614;2022-12-18T07:53:46;12.18;;;5.43;;
5277;SDS011;2662;51.194;6.614;2022-12-18T07:56:12;9.48;;;5.40;;
5277;SDS011;2662;51.194;6.614;2022-12-18T07:58:40;11.15;;;6.10;;
5277;SDS011;2662;51.194;6.614;2022-12-18T08:01:09;22.15;;;5.97;;
5277;SDS011;2662;51.194;6.614;2022-12-18T08:03:38;11.90;;;5.57;;
5277;SDS011;2662;51.194;6.614;2022-12-18T08:06:06;15.75;;;5.20;;
5277;SDS011;2662;51.194;6.614;2022-12-18T08:08:34;8.38;;;4.47;;
5277;SDS011;2662;51.194;6.614;2022-12-18T08:11:01;11.70;;;6.18;;
5277;SDS011;2662;51.194;6.614;2022-12-18T08:13:28;11.52;;;5.88;;
5277;SDS011;2662;51.194;6.614;2022-12-18T08:15:57;10.35;;;5.55;;
5277;SDS011;2662;51.194;6.614;2022-12-18T08:18:25;13.50;;;6.10;;
5277;SDS011;2662;51.194;6.614;2022-12-18T08:20:52;9.85;;;5.30;;
5277;SDS011;2662;51.194;6.614;2022-12-18T08:23:18;13.40;;;6.28;;
5277;SDS011;2662;51.194;6.614;2022-12-18T08:25:45;10.65;;;5.55;;
5277;SDS011;2662;51.194;6.614;2022-12-18T08:28:12;12.93;;;6.20;;
5277;SDS011;2662;51.194;6.614;2022-12-18T08:30:39;9.65;;;5.32;;
5277;SDS011;2662;51.194;6.614;2022-12-18T08:33:08;12.02;;;5.45;;
5277;SDS011;2662;51.194;6.614;2022-12-18T08:35:35;9.05;;;5.63;;
5277;SDS011;2662;51.194;6.614;2022-12-18T08:38:02;12.98;;;6.20;;
5277;SDS011;2662;51.194;6.614;2022-12-18T08:40:29;15.63;;;5.68;;
5277;SDS011;2662;51.194;6.614;2022-12-18T08:42:56;9.40;;;5.55;;
5277;SDS011;2662;51.194;6.614;2022-12-18T08:45:40;12.07;;;5.45;;
5277;SDS011;2662;51.194;6.614;2022-12-18T08:48:08;19.25;;;6.18;;
5277;SDS011;2662;51.194;6.614;2022-12-18T08:50:35;12.95;;;6.72;;
5277;SDS011;2662;51.194;6.614;2022-12-18T08:53:02;9.45;;;5.60;;
5277;SDS011;2662;51.194;6.614;2022-12-18T08:55:29;12.27;;;6.07;;
5277;SDS011;2662;51.194;6.614;2022-12-18T08:57:55;12.60;;;6.43;;
5277;SDS011;2662;51.194;6.614;2022-12-18T09:00:22;13.27;;;6.55;;
5277;SDS011;2662;51.194;6.614;2022-12-18T09:02:49;19.83;;;5.97;;
5277;SDS011;2662;51.194;6.614;2022-12-18T09:05:17;12.18;;;5.88;;
5277;SDS011;2662;51.194;6.614;2022-12-18T09:07:43;10.60;;;6.38;;
5277;SDS011;2662;51.194;6.614;2022-12-18T09:10:10;12.40;;;6.32;;
5277;SDS011;2662;51.194;6.614;2022-12-18T09:12:37;16.30;;;6.45;;
5277;SDS011;2662;51.194;6.614;2022-12-18T09:15:04;11.18;;;6.18;;
5277;SDS011;2662;51.194;6.614;2022-12-18T09:17:31;11.98;;;6.20;;
5277;SDS011;2662;51.194;6.614;2022-12-18T09:19:58;11.35;;;5.65;;
5277;SDS011;2662;51.194;6.614;2022-12-18T09:22:26;15.10;;;6.72;;
5277;SDS011;2662;51.194;6.614;2022-12-18T09:24:53;24.35;;;5.88;;
5277;SDS011;2662;51.194;6.614;2022-12-18T09:27:19;34.90;;;6.35;;
5277;SDS011;2662;51.194;6.614;2022-12-18T09:29:46;86.22;;;6.30;;
5277;SDS011;2662;51.194;6.614;2022-12-18T09:32:13;13.45;;;5.75;;
5277;SDS011;2662;51.194;6.614;2022-12-18T09:34:39;14.02;;;5.72;;
5277;SDS011;2662;51.194;6.614;2022-12-18T09:37:06;12.30;;;6.30;;
5277;SDS011;2662;51.194;6.614;2022-12-18T09:39:37;14.32;;;6.40;;
5277;SDS011;2662;51.194;6.614;2022-12-18T09:42:04;12.45;;;6.82;;
5277;SDS011;2662;51.194;6.614;2022-12-18T09:44:32;8.80;;;5.85;;
5277;SDS011;2662;51.194;6.614;2022-12-18T09:47:07;11.93;;;6.00;;
5277;SDS011;2662;51.194;6.614;2022-12-18T09:49:38;11.50;;;6.40;;
5277;SDS011;2662;51.194;6.614;2022-12-18T09:52:09;9.10;;;5.43;;
5277;SDS011;2662;51.194;6.614;2022-12-18T09:54:43;14.90;;;6.82;;
5277;SDS011;2662;51.194;6.614;2022-12-18T09:57:15;11.55;;;6.78;;
5277;SDS011;2662;51.194;6.614;2022-12-18T09:59:46;10.45;;;5.43;;
5277;SDS011;2662;51.194;6.614;2022-12-18T10:02:16;19.63;;;6.07;;
5277;SDS011;2662;51.194;6.614;2022-12-18T10:04:47;11.23;;;5.72;;
5277;SDS011;2662;51.194;6.614;2022-12-18T10:07:22;13.32;;;6.30;;
5277;SDS011;2662;51.194;6.614;2022-12-18T10:09:56;11.57;;;6.53;;
5277;SDS011;2662;51.194;6.614;2022-12-18T10:12:30;11.80;;;6.05;;
5277;SDS011;2662;51.194;6.614;2022-12-18T10:15:06;11.38;;;6.32;;
5277;SDS011;2662;51.194;6.614;2022-12-18T10:17:40;14.38;;;6.25;;
5277;SDS011;2662;51.194;6.614;2022-12-18T10:20:13;29.75;;;7.20;;
5277;SDS011;2662;51.194;6.614;2022-12-18T10:22:47;22.08;;;6.75;;
5277;SDS011;2662;51.194;6.614;2022-12-18T10:25:24;14.02;;;7.10;;
5277;SDS011;2662;51.194;6.614;2022-12-18T10:27:55;14.95;;;6.93;;
5277;SDS011;2662;51.194;6.614;2022-12-18T10:30:24;13.57;;;6.70;;
5277;SDS011;2662;51.194;6.614;2022-12-18T10:32:52;10.77;;;6.50;;
5277;SDS011;2662;51.194;6.614;2022-12-18T10:35:20;10.82;;;6.15;;
5277;SDS011;2662;51.194;6.614;2022-12-18T10:38:01;13.68;;;6.60;;
5277;SDS011;2662;51.194;6.614;2022-12-18T10:40:31;13.23;;;7.28;;
5277;SDS011;2662;51.194;6.614;2022-12-18T10:43:03;17.48;;;6.55;;
5277;SDS011;2662;51.194;6.614;2022-12-18T10:45:30;13.80;;;6.95;;
5277;SDS011;2662;51.194;6.614;2022-12-18T10:47:57;13.05;;;6.30;;
5277;SDS011;2662;51.194;6.614;2022-12-18T10:50:26;15.02;;;6.75;;
5277;SDS011;2662;51.194;6.614;2022-12-18T10:52:57;13.23;;;7.40;;
5277;SDS011;2662;51.194;6.614;2022-12-18T10:55:25;14.07;;;6.50;;
5277;SDS011;2662;51.194;6.614;2022-12-18T10:58:02;16.67;;;6.88;;
5277;SDS011;2662;51.194;6.614;2022-12-18T11:00:42;12.60;;;6.03;;
5277;SDS011;2662;51.194;6.614;2022-12-18T11:03:28;13.60;;;7.28;;
5277;SDS011;2662;51.194;6.614;2022-12-18T11:06:01;12.60;;;6.90;;
5277;SDS011;2662;51.194;6.614;2022-12-18T11:08:29;15.50;;;7.13;;
5277;SDS011;2662;51.194;6.614;2022-12-18T11:10:56;13.93;;;6.40;;
5277;SDS011;2662;51.194;6.614;2022-12-18T11:13:24;12.88;;;7.38;;
5277;SDS011;2662;51.194;6.614;2022-12-18T11:15:53;11.57;;;6.20;;
5277;SDS011;2662;51.194;6.614;2022-12-18T11:18:22;14.57;;;7.00;;
5277;SDS011;2662;51.194;6.614;2022-12-18T11:20:52;13.60;;;7.20;;
5277;SDS011;2662;51.194;6.614;2022-12-18T11:23:22;14.25;;;6.75;;
5277;SDS011;2662;51.194;6.614;2022-12-18T11:25:50;13.02;;;6.93;;
5277;SDS011;2662;51.194;6.614;2022-12-18T11:28:29;10.65;;;6.60;;
5277;SDS011;2662;51.194;6.614;2022-12-18T11:31:11;9.60;;;5.20;;
5277;SDS011;2662;51.194;6.614;2022-12-18T11:33:47;13.80;;;6.80;;
5277;SDS011;2662;51.194;6.614;2022-12-18T11:36:20;15.27;;;7.10;;
5277;SDS011;2662;51.194;6.614;2022-12-18T11:38:48;13.05;;;6.43;;
5277;SDS011;2662;51.194;6.614;2022-12-18T11:41:19;13.67;;;7.20;;
5277;SDS011;2662;51.194;6.614;2022-12-18T11:44:11;17.70;;;6.47;;
5277;SDS011;2662;51.194;6.614;2022-12-18T11:46:44;19.53;;;7.63;;
5277;SDS011;2662;51.194;6.614;2022-12-18T11:49:15;13.27;;;6.90;;
5277;SDS011;2662;51.194;6.614;2022-12-18T11:51:47;16.70;;;7.70;;
5277;SDS011;2662;51.194;6.614;2022-12-18T11:54:17;12.60;;;6.77;;
5277;SDS011;2662;51.194;6.614;2022-12-18T11:56:46;12.70;;;6.23;;
5277;SDS011;2662;51.194;6.614;2022-12-18T11:59:19;12.15;;;7.50;;
5277;SDS011;2662;51.194;6.614;2022-12-18T12:01:52;13.30;;;7.10;;
5277;SDS011;2662;51.194;6.614;2022-12-18T12:07:20;19.27;;;8.10;;
5277;SDS011;2662;51.194;6.614;2022-12-18T12:09:57;13.63;;;7.40;;
5277;SDS011;2662;51.194;6.614;2022-12-18T12:12:31;18.00;;;7.90;;
5277;SDS011;2662;51.194;6.614;2022-12-18T12:15:19;14.33;;;7.37;;
5277;SDS011;2662;51.194;6.614;2022-12-18T12:17:55;12.43;;;7.30;;
5277;SDS011;2662;51.194;6.614;2022-12-18T12:20:32;14.70;;;7.30;;
5277;SDS011;2662;51.194;6.614;2022-12-18T12:23:11;14.77;;;7.77;;
5277;SDS011;2662;51.194;6.614;2022-12-18T12:25:46;15.80;;;7.60;;
5277;SDS011;2662;51.194;6.614;2022-12-18T12:28:19;12.93;;;6.53;;
5277;SDS011;2662;51.194;6.614;2022-12-18T12:31:01;21.43;;;6.83;;
5277;SDS011;2662;51.194;6.614;2022-12-18T12:33:34;12.83;;;6.93;;
5277;SDS011;2662;51.194;6.614;2022-12-18T12:36:10;20.70;;;8.33;;
5277;SDS011;2662;51.194;6.614;2022-12-18T12:38:44;15.33;;;8.33;;
5277;SDS011;2662;51.194;6.614;2022-12-18T12:41:16;14.17;;;7.77;;
5277;SDS011;2662;51.194;6.614;2022-12-18T12:44:04;16.83;;;7.57;;
5277;SDS011;2662;51.194;6.614;2022-12-18T12:46:35;16.98;;;7.97;;
5277;SDS011;2662;51.194;6.614;2022-12-18T12:49:08;17.17;;;7.00;;
5277;SDS011;2662;51.194;6.614;2022-12-18T12:51:38;15.85;;;7.50;;
5277;SDS011;2662;51.194;6.614;2022-12-18T12:54:10;15.15;;;7.53;;
5277;SDS011;2662;51.194;6.614;2022-12-18T12:56:42;14.65;;;8.00;;
5277;SDS011;2662;51.194;6.614;2022-12-18T12:59:15;18.53;;;8.77;;
5277;SDS011;2662;51.194;6.614;2022-12-18T13:01:52;15.63;;;7.95;;
5277;SDS011;2662;51.194;6.614;2022-12-18T13:04:25;18.42;;;8.80;;
5277;SDS011;2662;51.194;6.614;2022-12-18T13:07:01;17.10;;;7.47;;
5277;SDS011;2662;51.194;6.614;2022-12-18T13:10:12;15.13;;;7.43;;
5277;SDS011;2662;51.194;6.614;2022-12-18T13:12:52;18.05;;;6.80;;
5277;SDS011;2662;51.194;6.614;2022-12-18T13:15:22;15.90;;;7.22;;
5277;SDS011;2662;51.194;6.614;2022-12-18T13:18:02;14.73;;;7.65;;
5277;SDS011;2662;51.194;6.614;2022-12-18T13:20:34;14.03;;;7.70;;
5277;SDS011;2662;51.194;6.614;2022-12-18T13:23:18;18.60;;;7.03;;
5277;SDS011;2662;51.194;6.614;2022-12-18T13:25:53;19.05;;;8.43;;
5277;SDS011;2662;51.194;6.614;2022-12-18T13:28:22;20.97;;;9.07;;
5277;SDS011;2662;51.194;6.614;2022-12-18T13:30:51;53.55;;;8.75;;
5277;SDS011;2662;51.194;6.614;2022-12-18T13:36:11;16.17;;;8.23;;
5277;SDS011;2662;51.194;6.614;2022-12-18T13:38:40;19.07;;;8.00;;
5277;SDS011;2662;51.194;6.614;2022-12-18T13:41:24;17.92;;;9.00;;
5277;SDS011;2662;51.194;6.614;2022-12-18T13:43:54;19.98;;;9.27;;
5277;SDS011;2662;51.194;6.614;2022-12-18T13:46:24;17.10;;;8.50;;
5277;SDS011;2662;51.194;6.614;2022-12-18T13:48:57;19.90;;;8.70;;
5277;SDS011;2662;51.194;6.614;2022-12-18T13:51:27;18.92;;;8.32;;
5277;SDS011;2662;51.194;6.614;2022-12-18T13:53:57;25.03;;;9.40;;
5277;SDS011;2662;51.194;6.614;2022-12-18T13:56:26;14.63;;;7.82;;
5277;SDS011;2662;51.194;6.614;2022-12-18T14:01:41;20.42;;;8.63;;
5277;SDS011;2662;51.194;6.614;2022-12-18T14:04:10;16.83;;;8.02;;
5277;SDS011;2662;51.194;6.614;2022-12-18T14:06:38;21.00;;;8.50;;
5277;SDS011;2662;51.194;6.614;2022-12-18T14:09:05;17.90;;;9.30;;
5277;SDS011;2662;51.194;6.614;2022-12-18T14:11:37;18.77;;;9.80;;
5277;SDS011;2662;51.194;6.614;2022-12-18T14:14:05;19.83;;;8.98;;
5277;SDS011;2662;51.194;6.614;2022-12-18T14:16:34;17.50;;;8.60;;
5277;SDS011;2662;51.194;6.614;2022-12-18T14:19:01;15.82;;;8.30;;
5277;SDS011;2662;51.194;6.614;2022-12-18T14:21:28;18.58;;;8.25;;
5277;SDS011;2662;51.194;6.614;2022-12-18T14:24:04;19.60;;;9.52;;
5277;SDS011;2662;51.194;6.614;2022-12-18T14:26:38;18.10;;;8.63;;
5277;SDS011;2662;51.194;6.614;2022-12-18T14:29:17;17.05;;;8.80;;
5277;SDS011;2662;51.194;6.614;2022-12-18T14:32:03;18.55;;;8.82;;
5277;SDS011;2662;51.194;6.614;2022-12-18T14:34:31;24.48;;;10.00;;
5277;SDS011;2662;51.194;6.614;2022-12-18T14:36:58;15.88;;;7.32;;
5277;SDS011;2662;51.194;6.614;2022-12-18T14:39:25;17.50;;;8.80;;
5277;SDS011;2662;51.194;6.614;2022-12-18T14:41:51;18.45;;;9.52;;
5277;SDS011;2662;51.194;6.614;2022-12-18T14:44:18;19.30;;;9.85;;
5277;SDS011;2662;51.194;6.614;2022-12-18T14:46:47;20.00;;;8.38;;
5277;SDS011;2662;51.194;6.614;2022-12-18T14:49:20;18.92;;;9.10;;
5277;SDS011;2662;51.194;6.614;2022-12-18T14:51:50;26.30;;;10.25;;
5277;SDS011;2662;51.194;6.614;2022-12-18T14:54:19;17.63;;;8.00;;
5277;SDS011;2662;51.194;6.614;2022-12-18T14:56:47;23.73;;;9.68;;
5277;SDS011;2662;51.194;6.614;2022-12-18T14:59:17;14.85;;;7.88;;
5277;SDS011;2662;51.194;6.614;2022-12-18T15:01:49;19.45;;;9.50;;
5277;SDS011;2662;51.194;6.614;2022-12-18T15:04:24;22.77;;;9.40;;
5277;SDS011;2662;51.194;6.614;2022-12-18T15:09:41;18.30;;;8.20;;
5277;SDS011;2662;51.194;6.614;2022-12-18T15:12:22;21.67;;;9.88;;
5277;SDS011;2662;51.194;6.614;2022-12-18T15:14:52;23.30;;;10.25;;
5277;SDS011;2662;51.194;6.614;2022-12-18T15:17:21;18.33;;;9.90;;
5277;SDS011;2662;51.194;6.614;2022-12-18T15:19:50;20.20;;;9.77;;
5277;SDS011;2662;51.194;6.614;2022-12-18T15:22:20;20.88;;;10.18;;
5277;SDS011;2662;51.194;6.614;2022-12-18T15:24:48;18.83;;;9.13;;
5277;SDS011;2662;51.194;6.614;2022-12-18T15:27:20;25.02;;;10.70;;
5277;SDS011;2662;51.194;6.614;2022-12-18T15:29:59;23.52;;;8.98;;
5277;SDS011;2662;51.194;6.614;2022-12-18T15:32:28;20.42;;;9.30;;